Big Creek, Kentucky
Current Conditions -  °F | °C
As of 12:55 AM on Friday 28 Nov 2014 (Local Time) from KI35 Reporting Station
Overcast Overcast  
Wind Chill: 23°   Ceiling: 2800
Heat Index: 28°   Visibility: 10mi
Dew Point: 23°   Wind: 5mph
Humidity: 80%   Direction: 300°WNW
Pressure: 30.34"   Gusts: NA
Location:  37.16°N, 83.57°W
Report Text: KI35 280555Z AUTO 30004KT 10SM BKN028 OVC034 M02/M05 A3034 RMK AO1
Loading
Personal Weather Stations






























Interactive Weather Map New forecast layout! Learn more

10-Day Weather Forecast

Advertisements
Track Severe Weather on mobile